METAR Data
IDs: Format: Raw Decoded Include TAF

Data at: 2323 UTC 25 Oct 2021

PADQ 252308Z 29008KT 10SM -RA BKN027 OVC035 07/03 A2902
PADQ 252253Z 30009KT 10SM -RA FEW020 OVC032 07/03 A2902
PADQ 252153Z 29011KT 10SM BKN036 07/02 A2903
PADQ 252053Z 29009KT 10SM OVC032 07/02 A2904
PADQ 251853Z 30007KT 10SM FEW050 06/02 A2904
PADQ 251753Z 31006KT 10SM OVC045 05/02 A2905
PADQ 251653Z 30011KT 10SM CLR 05/02 A2905
PADQ 251602Z 29004KT 10SM SCT020 04/02 A2907
PADQ 251553Z 32005KT 10SM BKN020 04/02 A2907
PADQ 251453Z 30006KT 10SM BKN021 04/03 A2908
PADQ 251353Z 30004KT 10SM OVC025 04/02 A2909
PADQ 242353Z 28010KT 10SM SCT026 09/04 A2935
PADQ 242253Z 30008KT 10SM SCT037 BKN044 08/04 A2937
PADQ 242153Z 32005KT 10SM OVC034 08/04 A2938
PADQ 242053Z 31006KT 10SM FEW028 BKN036 OVC044 10/05 A2938
PADQ 241853Z 00000KT 10SM FEW021 OVC035 07/05 A2940
PADQ 241831Z 23003KT 10SM BKN020 OVC037 07/05 A2940
PADQ 241753Z 22005KT 10SM OVC036 06/04 A2940
PADQ 241653Z 26004KT 10SM -RA BKN015 BKN026 OVC033 06/04 A2940
PADQ 241612Z 05006KT 8SM -RA FEW013 BKN028 OVC045 07/04 A2939
PADQ 241553Z 33007KT 10SM FEW029 SCT037 SCT045 07/04 A2938
PADQ 241419Z 34007KT 9SM -RA FEW021 BKN025 BKN034 08/05 A2934
PADQ 241353Z 35005KT 10SM FEW031 SCT036 08/04 A2933